Map

Track Data

SID SEASON NUMBER BASIN SUBBASIN NAME ISO_TIME NATURE LAT LON WMO_WIND WMO_PRES WMO_AGENCY TRACK_TYPE DIST2LAND LANDFALL IFLAG USA_AGENCY USA_ATCF_ID USA_LAT USA_LON USA_RECORD USA_STATUS USA_WIND USA_PRES USA_SSHS USA_R34_NE USA_R34_SE USA_R34_SW USA_R34_NW USA_R50_NE USA_R50_SE USA_R50_SW USA_R50_NW USA_R64_NE USA_R64_SE USA_R64_SW USA_R64_NW USA_POCI USA_ROCI USA_RMW USA_EYE TOKYO_LAT TOKYO_LON TOKYO_GRADE TOKYO_WIND TOKYO_PRES TOKYO_R50_DIR TOKYO_R50_LONG TOKYO_R50_SHORT TOKYO_R30_DIR TOKYO_R30_LONG TOKYO_R30_SHORT TOKYO_LAND CMA_LAT CMA_LON CMA_CAT CMA_WIND CMA_PRES HKO_LAT HKO_LON HKO_CAT HKO_WIND HKO_PRES NEWDELHI_LAT NEWDELHI_LON NEWDELHI_GRADE NEWDELHI_WIND NEWDELHI_PRES NEWDELHI_CI NEWDELHI_DP NEWDELHI_POCI REUNION_LAT REUNION_LON REUNION_TYPE REUNION_WIND REUNION_PRES REUNION_TNUM REUNION_CI REUNION_RMW REUNION_R34_NE REUNION_R34_SE REUNION_R34_SW REUNION_R34_NW REUNION_R50_NE REUNION_R50_SE REUNION_R50_SW REUNION_R50_NW REUNION_R64_NE REUNION_R64_SE REUNION_R64_SW REUNION_R64_NW BOM_LAT BOM_LON BOM_TYPE BOM_WIND BOM_PRES BOM_TNUM BOM_CI BOM_RMW BOM_R34_NE BOM_R34_SE BOM_R34_SW BOM_R34_NW BOM_R50_NE BOM_R50_SE BOM_R50_SW BOM_R50_NW BOM_R64_NE BOM_R64_SE BOM_R64_SW BOM_R64_NW BOM_ROCI BOM_POCI BOM_EYE BOM_POS_METHOD BOM_PRES_METHOD NADI_LAT NADI_LON NADI_CAT NADI_WIND NADI_PRES WELLINGTON_LAT WELLINGTON_LON WELLINGTON_WIND WELLINGTON_PRES DS824_LAT DS824_LON DS824_STAGE DS824_WIND DS824_PRES TD9636_LAT TD9636_LON TD9636_STAGE TD9636_WIND TD9636_PRES TD9635_LAT TD9635_LON TD9635_WIND TD9635_PRES TD9635_ROCI NEUMANN_LAT NEUMANN_LON NEUMANN_CLASS NEUMANN_WIND NEUMANN_PRES MLC_LAT MLC_LON MLC_CLASS MLC_WIND MLC_PRES USA_GUST BOM_GUST BOM_GUST_PER REUNION_GUST REUNION_GUST_PER USA_SEAHGT USA_SEARAD_NE USA_SEARAD_SE USA_SEARAD_SW USA_SEARAD_NW STORM_SPEED STORM_DIR
1987242N13257 1987 65 EP MM LIDIA 1987-08-29 12:00:00 TS 12.5000 -102.600 25 hurdat_epa main 560 553 O_________O___ hurdat_epa EP121987 12.5000 -102.600 TD 25 -1 12.5000 -102.600 1 25 12 290
1987242N13257 1987 65 EP MM LIDIA 1987-08-29 15:00:00 TS 12.6956 -103.153 main 562 555 P_________P___ EP121987 12.6778 -103.175 TD 27 -1 12.7490 -103.087 1 27 11 292
1987242N13257 1987 65 EP MM LIDIA 1987-08-29 18:00:00 TS 12.9245 -103.670 30 hurdat_epa main 566 556 O_________P___ hurdat_epa EP121987 12.9000 -103.700 TD 30 -1 12.9981 -103.579 1 30 11 298
1987242N13257 1987 65 EP MM LIDIA 1987-08-29 21:00:00 TS 13.2062 -104.133 main 560 542 P_________P___ EP121987 13.1923 -104.150 TD 32 -1 13.2481 -104.082 1 32 11 302
1987242N13257 1987 65 EP MM LIDIA 1987-08-30 00:00:00 TS 13.5000 -104.600 35 hurdat_epa main 546 535 O_________O___ hurdat_epa EP121987 13.5000 -104.600 TS 35 0 13.5000 -104.600 2 35 11 299
1987242N13257 1987 65 EP MM LIDIA 1987-08-30 03:00:00 TS 13.7513 -105.135 main 531 530 P_________P___ EP121987 13.7500 -105.135 TS 37 0 13.7554 -105.136 2 37 12 295
1987242N13257 1987 65 EP MM LIDIA 1987-08-30 06:00:00 TS 14.0049 -105.696 40 hurdat_epa main 535 530 O_________P___ hurdat_epa EP121987 14.0000 -105.700 TS 40 0 14.0197 -105.686 2 40 12 296
1987242N13257 1987 65 EP MM LIDIA 1987-08-30 09:00:00 TS 14.2885 -106.254 main 538 535 P_________P___ EP121987 14.2849 -106.258 TS 42 0 14.2991 -106.242 2 42 12 299
1987242N13257 1987 65 EP MM LIDIA 1987-08-30 12:00:00 TS 14.6000 -106.800 45 hurdat_epa main 543 540 O_________O___ hurdat_epa EP121987 14.6000 -106.800 TS 45 0 14.6000 -106.800 2 45 12 303
1987242N13257 1987 65 EP MM LIDIA 1987-08-30 15:00:00 TS 14.9478 -107.308 main 549 537 P_________P___ EP121987 14.9422 -107.293 TS 45 0 14.9647 -107.354 2 45 12 306
1987242N13257 1987 65 EP MM LIDIA 1987-08-30 18:00:00 TS 15.3111 -107.827 45 hurdat_epa main 540 535 O_________P___ hurdat_epa EP121987 15.3000 -107.800 TS 45 0 15.3446 -107.907 2 45 13 305
1987242N13257 1987 65 EP MM LIDIA 1987-08-30 21:00:00 TS 15.6799 -108.403 main 547 546 P_________P___ EP121987 15.6725 -108.385 TS 45 0 15.7022 -108.457 2 45 13 301
1987242N13257 1987 65 EP MM LIDIA 1987-08-31 00:00:00 TS 16.0000 -109.000 45 hurdat_epa main 569 569 O_________O___ hurdat_epa EP121987 16.0000 -109.000 TS 45 0 16.0000 -109.000 2 45 13 296
1987242N13257 1987 65 EP MM LIDIA 1987-08-31 03:00:00 TS 16.2342 -109.606 main 600 600 P_________P___ EP121987 16.2450 -109.623 TS 50 0 16.2018 -109.557 2 47 12 289
1987242N13257 1987 65 EP MM LIDIA 1987-08-31 06:00:00 TS 16.3850 -110.176 55 hurdat_epa main 636 636 O_________P___ hurdat_epa EP121987 16.4000 -110.200 TS 55 0 16.3399 -110.103 2 50 10 283
1987242N13257 1987 65 EP MM LIDIA 1987-08-31 09:00:00 TS 16.4625 -110.666 main 673 673 P_________P___ EP121987 16.4723 -110.680 TS 55 0 16.4331 -110.623 2 52 9 277
1987242N13257 1987 65 EP MM LIDIA 1987-08-31 12:00:00 TS 16.5000 -111.100 55 hurdat_epa main 709 709 O_________O___ hurdat_epa EP121987 16.5000 -111.100 TS 55 0 16.5000 -111.100 2 55 8 276
1987242N13257 1987 65 EP MM LIDIA 1987-08-31 15:00:00 TS 16.5521 -111.511 main 721 721 P_________P___ EP121987 16.5499 -111.515 TS 55 0 16.5586 -111.500 2 56 8 278
1987242N13257 1987 65 EP MM LIDIA 1987-08-31 18:00:00 TS 16.5998 -111.890 55 hurdat_epa main 732 732 O_________P___ hurdat_epa EP121987 16.6000 -111.900 TS 55 0 16.5991 -111.861 2 57 7 277
1987242N13257 1987 65 EP MM LIDIA 1987-08-31 21:00:00 TS 16.6417 -112.236 main 741 733 P_________P___ EP121987 16.6423 -112.243 TS 57 0 16.6400 -112.216 2 58 7 278
1987242N13257 1987 65 EP MM LIDIA 1987-09-01 00:00:00 TS 16.7000 -112.600 60 hurdat_epa main 744 744 O_________O___ hurdat_epa EP121987 16.7000 -112.600 TS 60 0 16.7000 -112.600 2 60 8 279
1987242N13257 1987 65 EP MM LIDIA 1987-09-01 03:00:00 TS 16.7702 -113.045 main 750 750 P_________P___ EP121987 16.7700 -113.043 TS 65 1 16.7707 -113.051 2 65 9 283
1987242N13257 1987 65 EP MM LIDIA 1987-09-01 06:00:00 TS 16.9000 -113.500 70 hurdat_epa main 764 759 O_________O___ hurdat_epa EP121987 16.9000 -113.500 HU 70 1 16.9000 -113.500 3 70 9 294
1987242N13257 1987 65 EP MM LIDIA 1987-09-01 09:00:00 TS 17.1338 -113.914 main 765 755 P_________P___ EP121987 17.1349 -113.915 HU 72 1 17.1303 -113.911 3 72 9 303
1987242N13257 1987 65 EP MM LIDIA 1987-09-01 12:00:00 TS 17.4000 -114.300 75 hurdat_epa main 761 758 O_________O___ hurdat_epa EP121987 17.4000 -114.300 HU 75 1 17.4000 -114.300 4 75 9 304
1987242N13257 1987 65 EP MM LIDIA 1987-09-01 15:00:00 TS 17.6121 -114.660 main 769 760 P_________P___ EP121987 17.6074 -114.650 HU 75 1 17.6262 -114.688 4 72 8 301
1987242N13257 1987 65 EP MM LIDIA 1987-09-01 18:00:00 TS 17.8085 -115.017 75 hurdat_epa main 772 771 O_________P___ hurdat_epa EP121987 17.8000 -115.000 HU 75 1 17.8339 -115.067 4 70 8 299
1987242N13257 1987 65 EP MM LIDIA 1987-09-01 21:00:00 TS 18.0118 -115.415 main 785 784 P_________P___ EP121987 18.0075 -115.407 HU 70 1 18.0245 -115.438 4 67 8 298
1987242N13257 1987 65 EP MM LIDIA 1987-09-02 00:00:00 TS 18.2000 -115.800 65 hurdat_epa main 800 800 O_________O___ hurdat_epa EP121987 18.2000 -115.800 HU 65 1 18.2000 -115.800 4 65 8 297
1987242N13257 1987 65 EP MM LIDIA 1987-09-02 03:00:00 TS 18.3571 -116.124 main 809 809 P_________P___ EP121987 18.3573 -116.100 HU 62 0 18.3564 -116.194 4 61 7 296
1987242N13257 1987 65 EP MM LIDIA 1987-09-02 06:00:00 TS 18.5001 -116.444 60 hurdat_epa main 822 822 O_________P___ hurdat_epa EP121987 18.5000 -116.400 TS 60 0 18.5002 -116.575 4 57 7 292
1987242N13257 1987 65 EP MM LIDIA 1987-09-02 09:00:00 TS 18.6430 -116.852 main 843 833 P_________P___ EP121987 18.6427 -116.830 TS 55 0 18.6439 -116.919 4 53 8 293
1987242N13257 1987 65 EP MM LIDIA 1987-09-02 12:00:00 TS 18.8000 -117.200 50 hurdat_epa main 843 832 O_________O___ hurdat_epa EP121987 18.8000 -117.200 TS 50 0 18.8000 -117.200 2 50 6 307
1987242N13257 1987 65 EP MM LIDIA 1987-09-02 15:00:00 TS 18.9905 -117.349 main 832 822 P_________P___ EP121987 18.9923 -117.338 TS 47 0 18.9852 -117.382 2 46 5 332
1987242N13257 1987 65 EP MM LIDIA 1987-09-02 18:00:00 TS 19.1961 -117.426 45 hurdat_epa main 822 812 O_________P___ hurdat_epa EP121987 19.2000 -117.400 TS 45 0 19.1845 -117.503 2 42 5 335
1987242N13257 1987 65 EP MM LIDIA 1987-09-02 21:00:00 TS 19.3979 -117.551 main 819 810 P_________P___ EP121987 19.4000 -117.535 TS 40 0 19.3915 -117.598 2 38 5 327
1987242N13257 1987 65 EP MM LIDIA 1987-09-03 00:00:00 TS 19.6000 -117.700 35 hurdat_epa main 810 802 O_________O___ hurdat_epa EP121987 19.6000 -117.700 TS 35 0 19.6000 -117.700 2 35 5 322
1987242N13257 1987 65 EP MM LIDIA 1987-09-03 03:00:00 TS 19.8012 -117.884 main 809 801 P_________P___ EP121987 19.8000 -117.900 TS 30 -1 19.8047 -117.837 2 32 5 319
1987242N13257 1987 65 EP MM LIDIA 1987-09-03 06:00:00 TS 20.0014 -118.077 25 hurdat_epa main 809 801 O_________P___ hurdat_epa EP121987 20.0000 -118.100 TD 25 -1 20.0054 -118.007 2 30 5 320
1987242N13257 1987 65 EP MM LIDIA 1987-09-03 09:00:00 TS 20.2009 -118.246 main 802 802 P_________P___ EP121987 20.2000 -118.262 TD 25 -1 20.2035 -118.198 2 27 5 323
1987242N13257 1987 65 EP MM LIDIA 1987-09-03 12:00:00 TS 20.4000 -118.400 25 hurdat_epa main 803 O_________O___ hurdat_epa EP121987 20.4000 -118.400 TD 25 -1 20.4000 -118.400 1 25 5 325

About IBTrACS Database

This database is a web-friendly format of International Best Track Archive for Climate Stewardship (IBTrACS), a global best track data archive curated by NOAA dating back to 1842.

Updated: 2021-10-19